sensor_id;sensor_type;location;lat;lon;timestamp;P1;durP1;ratioP1;P2;durP2;ratioP2
43154;SDS011;34212;51.018;13.586;2023-07-20T00:04:19;4.57;;;2.63;;
43154;SDS011;34212;51.018;13.586;2023-07-20T00:09:21;5.20;;;2.90;;
43154;SDS011;34212;51.018;13.586;2023-07-20T00:14:22;5.60;;;2.80;;
43154;SDS011;34212;51.018;13.586;2023-07-20T00:19:25;9.63;;;2.20;;
43154;SDS011;34212;51.018;13.586;2023-07-20T00:24:27;4.43;;;1.95;;
43154;SDS011;34212;51.018;13.586;2023-07-20T00:29:28;4.40;;;1.87;;
43154;SDS011;34212;51.018;13.586;2023-07-20T00:34:30;6.70;;;2.07;;
43154;SDS011;34212;51.018;13.586;2023-07-20T00:39:32;4.80;;;2.92;;
43154;SDS011;34212;51.018;13.586;2023-07-20T00:44:33;5.77;;;3.17;;
43154;SDS011;34212;51.018;13.586;2023-07-20T00:49:36;9.43;;;4.03;;
43154;SDS011;34212;51.018;13.586;2023-07-20T00:54:39;6.60;;;3.20;;
43154;SDS011;34212;51.018;13.586;2023-07-20T00:59:41;5.45;;;4.38;;
43154;SDS011;34212;51.018;13.586;2023-07-20T01:04:43;7.60;;;3.55;;
43154;SDS011;34212;51.018;13.586;2023-07-20T01:15:41;6.40;;;3.40;;
43154;SDS011;34212;51.018;13.586;2023-07-20T01:20:42;5.27;;;3.57;;
43154;SDS011;34212;51.018;13.586;2023-07-20T01:26:07;5.30;;;3.50;;
43154;SDS011;34212;51.018;13.586;2023-07-20T01:31:33;7.10;;;4.22;;
43154;SDS011;34212;51.018;13.586;2023-07-20T01:36:37;8.52;;;4.45;;
43154;SDS011;34212;51.018;13.586;2023-07-20T01:41:39;9.32;;;4.20;;
43154;SDS011;34212;51.018;13.586;2023-07-20T01:46:41;6.90;;;4.88;;
43154;SDS011;34212;51.018;13.586;2023-07-20T01:51:42;7.13;;;5.10;;
43154;SDS011;34212;51.018;13.586;2023-07-20T01:56:44;10.03;;;5.30;;
43154;SDS011;34212;51.018;13.586;2023-07-20T02:01:45;9.63;;;5.90;;
43154;SDS011;34212;51.018;13.586;2023-07-20T02:06:47;7.70;;;5.30;;
43154;SDS011;34212;51.018;13.586;2023-07-20T02:11:48;11.97;;;5.77;;
43154;SDS011;34212;51.018;13.586;2023-07-20T02:16:54;10.57;;;5.32;;
43154;SDS011;34212;51.018;13.586;2023-07-20T02:22:01;7.95;;;5.40;;
43154;SDS011;34212;51.018;13.586;2023-07-20T02:27:03;9.30;;;5.50;;
43154;SDS011;34212;51.018;13.586;2023-07-20T02:32:05;11.32;;;5.55;;
43154;SDS011;34212;51.018;13.586;2023-07-20T02:37:06;9.18;;;5.07;;
43154;SDS011;34212;51.018;13.586;2023-07-20T02:42:12;10.60;;;5.13;;
43154;SDS011;34212;51.018;13.586;2023-07-20T02:47:15;6.97;;;5.65;;
43154;SDS011;34212;51.018;13.586;2023-07-20T02:52:17;8.27;;;4.88;;
43154;SDS011;34212;51.018;13.586;2023-07-20T02:57:22;12.20;;;5.43;;
43154;SDS011;34212;51.018;13.586;2023-07-20T03:02:24;9.77;;;5.43;;
43154;SDS011;34212;51.018;13.586;2023-07-20T03:07:27;8.90;;;6.22;;
43154;SDS011;34212;51.018;13.586;2023-07-20T03:12:30;9.52;;;5.70;;
43154;SDS011;34212;51.018;13.586;2023-07-20T03:17:31;8.93;;;5.73;;
43154;SDS011;34212;51.018;13.586;2023-07-20T03:22:33;9.23;;;5.43;;
43154;SDS011;34212;51.018;13.586;2023-07-20T03:27:35;9.82;;;5.05;;
43154;SDS011;34212;51.018;13.586;2023-07-20T03:32:37;7.90;;;5.40;;
43154;SDS011;34212;51.018;13.586;2023-07-20T03:37:38;9.80;;;5.47;;
43154;SDS011;34212;51.018;13.586;2023-07-20T03:42:40;10.00;;;4.37;;
43154;SDS011;34212;51.018;13.586;2023-07-20T03:47:42;6.65;;;4.78;;
43154;SDS011;34212;51.018;13.586;2023-07-20T03:52:45;6.78;;;4.68;;
43154;SDS011;34212;51.018;13.586;2023-07-20T03:57:47;11.23;;;5.90;;
43154;SDS011;34212;51.018;13.586;2023-07-20T04:02:52;10.60;;;6.00;;
43154;SDS011;34212;51.018;13.586;2023-07-20T04:07:53;10.23;;;6.23;;
43154;SDS011;34212;51.018;13.586;2023-07-20T04:12:55;10.38;;;7.43;;
43154;SDS011;34212;51.018;13.586;2023-07-20T04:17:57;13.07;;;7.97;;
43154;SDS011;34212;51.018;13.586;2023-07-20T04:23:00;10.02;;;7.93;;
43154;SDS011;34212;51.018;13.586;2023-07-20T04:28:01;10.20;;;7.78;;
43154;SDS011;34212;51.018;13.586;2023-07-20T04:33:03;8.05;;;6.93;;
43154;SDS011;34212;51.018;13.586;2023-07-20T04:38:05;11.18;;;6.82;;
43154;SDS011;34212;51.018;13.586;2023-07-20T04:43:07;12.07;;;6.80;;
43154;SDS011;34212;51.018;13.586;2023-07-20T04:48:09;10.25;;;8.20;;
43154;SDS011;34212;51.018;13.586;2023-07-20T04:53:14;10.13;;;7.07;;
43154;SDS011;34212;51.018;13.586;2023-07-20T04:58:15;9.60;;;7.37;;
43154;SDS011;34212;51.018;13.586;2023-07-20T05:03:18;8.27;;;6.05;;
43154;SDS011;34212;51.018;13.586;2023-07-20T05:08:20;10.45;;;5.63;;
43154;SDS011;34212;51.018;13.586;2023-07-20T05:13:23;9.70;;;5.90;;
43154;SDS011;34212;51.018;13.586;2023-07-20T05:18:25;9.27;;;6.32;;
43154;SDS011;34212;51.018;13.586;2023-07-20T05:23:27;8.70;;;5.22;;
43154;SDS011;34212;51.018;13.586;2023-07-20T05:28:28;8.05;;;5.38;;
43154;SDS011;34212;51.018;13.586;2023-07-20T05:33:30;7.37;;;5.67;;
43154;SDS011;34212;51.018;13.586;2023-07-20T05:38:31;6.80;;;5.10;;
43154;SDS011;34212;51.018;13.586;2023-07-20T05:43:33;5.20;;;4.70;;
43154;SDS011;34212;51.018;13.586;2023-07-20T05:48:34;10.50;;;4.57;;
43154;SDS011;34212;51.018;13.586;2023-07-20T05:53:36;5.30;;;4.63;;
43154;SDS011;34212;51.018;13.586;2023-07-20T05:58:39;7.35;;;5.60;;
43154;SDS011;34212;51.018;13.586;2023-07-20T06:03:40;8.93;;;6.03;;
43154;SDS011;34212;51.018;13.586;2023-07-20T06:08:42;7.10;;;6.40;;
43154;SDS011;34212;51.018;13.586;2023-07-20T06:13:43;13.53;;;5.67;;
43154;SDS011;34212;51.018;13.586;2023-07-20T06:18:45;18.30;;;7.83;;
43154;SDS011;34212;51.018;13.586;2023-07-20T06:23:46;11.18;;;7.38;;
43154;SDS011;34212;51.018;13.586;2023-07-20T06:28:48;9.95;;;7.45;;
43154;SDS011;34212;51.018;13.586;2023-07-20T06:33:49;11.73;;;7.47;;
43154;SDS011;34212;51.018;13.586;2023-07-20T06:38:51;10.40;;;7.53;;
43154;SDS011;34212;51.018;13.586;2023-07-20T06:43:56;9.82;;;7.55;;
43154;SDS011;34212;51.018;13.586;2023-07-20T06:48:59;11.73;;;7.75;;
43154;SDS011;34212;51.018;13.586;2023-07-20T06:54:04;10.00;;;7.70;;
43154;SDS011;34212;51.018;13.586;2023-07-20T06:59:05;9.00;;;7.72;;
43154;SDS011;34212;51.018;13.586;2023-07-20T07:04:07;14.25;;;8.23;;
43154;SDS011;34212;51.018;13.586;2023-07-20T07:09:09;9.27;;;8.37;;
43154;SDS011;34212;51.018;13.586;2023-07-20T07:19:13;9.73;;;8.03;;
43154;SDS011;34212;51.018;13.586;2023-07-20T07:24:15;9.95;;;9.00;;
43154;SDS011;34212;51.018;13.586;2023-07-20T07:29:20;13.73;;;9.45;;
43154;SDS011;34212;51.018;13.586;2023-07-20T07:34:22;9.10;;;8.23;;
43154;SDS011;34212;51.018;13.586;2023-07-20T07:39:23;7.97;;;6.53;;
43154;SDS011;34212;51.018;13.586;2023-07-20T07:44:28;6.22;;;5.35;;
43154;SDS011;34212;51.018;13.586;2023-07-20T07:49:30;6.95;;;5.53;;
43154;SDS011;34212;51.018;13.586;2023-07-20T07:54:32;8.65;;;6.35;;
43154;SDS011;34212;51.018;13.586;2023-07-20T07:59:34;7.43;;;6.57;;
43154;SDS011;34212;51.018;13.586;2023-07-20T08:04:38;7.32;;;6.63;;
43154;SDS011;34212;51.018;13.586;2023-07-20T08:09:40;8.80;;;7.63;;
43154;SDS011;34212;51.018;13.586;2023-07-20T08:14:42;8.00;;;6.53;;
43154;SDS011;34212;51.018;13.586;2023-07-20T08:19:43;6.53;;;5.93;;
43154;SDS011;34212;51.018;13.586;2023-07-20T08:24:46;6.50;;;5.75;;
43154;SDS011;34212;51.018;13.586;2023-07-20T08:29:48;10.48;;;8.07;;
43154;SDS011;34212;51.018;13.586;2023-07-20T08:34:49;8.87;;;7.97;;
43154;SDS011;34212;51.018;13.586;2023-07-20T08:39:51;7.75;;;7.03;;
43154;SDS011;34212;51.018;13.586;2023-07-20T08:44:53;9.48;;;7.70;;
43154;SDS011;34212;51.018;13.586;2023-07-20T08:49:56;8.30;;;7.50;;
43154;SDS011;34212;51.018;13.586;2023-07-20T08:54:58;7.85;;;7.05;;
43154;SDS011;34212;51.018;13.586;2023-07-20T09:00:00;8.18;;;7.35;;
43154;SDS011;34212;51.018;13.586;2023-07-20T09:05:07;8.32;;;7.30;;
43154;SDS011;34212;51.018;13.586;2023-07-20T09:10:11;10.57;;;8.73;;
43154;SDS011;34212;51.018;13.586;2023-07-20T09:15:15;9.05;;;8.15;;
43154;SDS011;34212;51.018;13.586;2023-07-20T09:20:18;8.20;;;6.78;;
43154;SDS011;34212;51.018;13.586;2023-07-20T09:25:24;8.85;;;8.02;;
43154;SDS011;34212;51.018;13.586;2023-07-20T09:30:30;8.82;;;8.02;;
43154;SDS011;34212;51.018;13.586;2023-07-20T09:35:32;7.32;;;6.63;;
43154;SDS011;34212;51.018;13.586;2023-07-20T09:40:44;6.65;;;6.05;;
43154;SDS011;34212;51.018;13.586;2023-07-20T09:45:48;6.35;;;4.95;;
43154;SDS011;34212;51.018;13.586;2023-07-20T09:50:53;4.78;;;4.30;;
43154;SDS011;34212;51.018;13.586;2023-07-20T09:55:55;5.72;;;4.60;;
43154;SDS011;34212;51.018;13.586;2023-07-20T10:00:58;3.83;;;3.53;;
43154;SDS011;34212;51.018;13.586;2023-07-20T10:06:05;3.70;;;3.20;;
43154;SDS011;34212;51.018;13.586;2023-07-20T10:11:09;4.47;;;3.40;;
43154;SDS011;34212;51.018;13.586;2023-07-20T10:16:21;3.08;;;2.78;;
43154;SDS011;34212;51.018;13.586;2023-07-20T10:21:27;3.95;;;3.65;;
43154;SDS011;34212;51.018;13.586;2023-07-20T10:26:33;4.00;;;3.70;;
43154;SDS011;34212;51.018;13.586;2023-07-20T10:31:38;8.25;;;7.35;;
43154;SDS011;34212;51.018;13.586;2023-07-20T10:41:59;5.85;;;5.35;;
43154;SDS011;34212;51.018;13.586;2023-07-20T10:47:11;4.93;;;4.53;;
43154;SDS011;34212;51.018;13.586;2023-07-20T10:52:14;24.90;;;4.30;;
43154;SDS011;34212;51.018;13.586;2023-07-20T10:57:50;6.32;;;4.78;;
43154;SDS011;34212;51.018;13.586;2023-07-20T11:02:46;5.38;;;4.85;;
43154;SDS011;34212;51.018;13.586;2023-07-20T11:07:52;6.65;;;6.05;;
43154;SDS011;34212;51.018;13.586;2023-07-20T11:18:18;19.92;;;7.75;;
43154;SDS011;34212;51.018;13.586;2023-07-20T11:23:20;7.15;;;6.47;;
43154;SDS011;34212;51.018;13.586;2023-07-20T11:28:22;6.85;;;6.35;;
43154;SDS011;34212;51.018;13.586;2023-07-20T11:33:23;7.10;;;6.30;;
43154;SDS011;34212;51.018;13.586;2023-07-20T11:43:27;5.97;;;5.40;;
43154;SDS011;34212;51.018;13.586;2023-07-20T11:48:28;5.47;;;4.97;;
43154;SDS011;34212;51.018;13.586;2023-07-20T11:53:30;4.75;;;4.35;;
43154;SDS011;34212;51.018;13.586;2023-07-20T11:58:34;5.43;;;4.88;;
43154;SDS011;34212;51.018;13.586;2023-07-20T12:03:35;7.75;;;7.05;;
43154;SDS011;34212;51.018;13.586;2023-07-20T12:13:42;18.92;;;9.10;;
43154;SDS011;34212;51.018;13.586;2023-07-20T12:18:45;12.88;;;7.95;;
43154;SDS011;34212;51.018;13.586;2023-07-20T12:23:47;9.57;;;7.03;;
43154;SDS011;34212;51.018;13.586;2023-07-20T12:28:48;11.05;;;9.95;;
43154;SDS011;34212;51.018;13.586;2023-07-20T12:38:52;11.40;;;10.37;;
43154;SDS011;34212;51.018;13.586;2023-07-20T12:43:54;8.45;;;7.55;;
43154;SDS011;34212;51.018;13.586;2023-07-20T12:48:59;13.85;;;9.30;;
43154;SDS011;34212;51.018;13.586;2023-07-20T12:54:00;8.13;;;6.55;;
43154;SDS011;34212;51.018;13.586;2023-07-20T12:59:02;8.90;;;8.10;;
43154;SDS011;34212;51.018;13.586;2023-07-20T13:04:04;9.20;;;8.30;;
43154;SDS011;34212;51.018;13.586;2023-07-20T13:09:08;8.60;;;7.75;;
43154;SDS011;34212;51.018;13.586;2023-07-20T13:14:10;6.32;;;5.72;;
43154;SDS011;34212;51.018;13.586;2023-07-20T13:19:13;5.38;;;4.88;;
43154;SDS011;34212;51.018;13.586;2023-07-20T13:24:14;4.53;;;4.13;;
43154;SDS011;34212;51.018;13.586;2023-07-20T13:29:16;4.00;;;3.53;;
43154;SDS011;34212;51.018;13.586;2023-07-20T13:34:18;3.40;;;3.10;;
43154;SDS011;34212;51.018;13.586;2023-07-20T13:39:20;3.97;;;2.72;;
43154;SDS011;34212;51.018;13.586;2023-07-20T13:44:25;3.05;;;2.67;;
43154;SDS011;34212;51.018;13.586;2023-07-20T13:49:28;5.07;;;3.10;;
43154;SDS011;34212;51.018;13.586;2023-07-20T13:54:37;2.80;;;2.60;;
43154;SDS011;34212;51.018;13.586;2023-07-20T13:59:47;3.15;;;2.80;;
43154;SDS011;34212;51.018;13.586;2023-07-20T14:04:49;3.85;;;3.45;;
43154;SDS011;34212;51.018;13.586;2023-07-20T14:10:10;3.67;;;3.38;;
43154;SDS011;34212;51.018;13.586;2023-07-20T14:15:15;6.25;;;3.80;;
43154;SDS011;34212;51.018;13.586;2023-07-20T14:20:18;3.80;;;3.15;;
43154;SDS011;34212;51.018;13.586;2023-07-20T14:25:23;4.00;;;3.40;;
43154;SDS011;34212;51.018;13.586;2023-07-20T14:30:24;2.80;;;2.50;;
43154;SDS011;34212;51.018;13.586;2023-07-20T14:47:38;3.80;;;3.50;;
43154;SDS011;34212;51.018;13.586;2023-07-20T14:59:45;5.78;;;2.92;;
43154;SDS011;34212;51.018;13.586;2023-07-20T15:04:50;3.85;;;3.45;;
43154;SDS011;34212;51.018;13.586;2023-07-20T15:09:52;3.53;;;2.58;;
43154;SDS011;34212;51.018;13.586;2023-07-20T15:20:12;3.67;;;3.38;;
43154;SDS011;34212;51.018;13.586;2023-07-20T15:25:15;2.35;;;2.10;;
43154;SDS011;34212;51.018;13.586;2023-07-20T15:30:17;2.58;;;2.13;;
43154;SDS011;34212;51.018;13.586;2023-07-20T15:35:23;2.17;;;1.80;;
43154;SDS011;34212;51.018;13.586;2023-07-20T15:40:25;3.67;;;2.67;;
43154;SDS011;34212;51.018;13.586;2023-07-20T15:45:27;3.80;;;2.10;;
43154;SDS011;34212;51.018;13.586;2023-07-20T15:50:29;2.40;;;2.20;;
43154;SDS011;34212;51.018;13.586;2023-07-20T15:55:31;2.15;;;1.88;;
43154;SDS011;34212;51.018;13.586;2023-07-20T16:00:32;1.90;;;1.70;;
43154;SDS011;34212;51.018;13.586;2023-07-20T16:10:36;1.55;;;1.45;;
43154;SDS011;34212;51.018;13.586;2023-07-20T16:15:38;7.15;;;1.70;;
43154;SDS011;34212;51.018;13.586;2023-07-20T16:20:43;1.95;;;1.75;;
43154;SDS011;34212;51.018;13.586;2023-07-20T16:25:46;1.75;;;1.58;;
43154;SDS011;34212;51.018;13.586;2023-07-20T16:30:49;1.60;;;1.50;;
43154;SDS011;34212;51.018;13.586;2023-07-20T16:35:50;2.25;;;1.20;;
43154;SDS011;34212;51.018;13.586;2023-07-20T16:40:55;1.48;;;1.35;;
43154;SDS011;34212;51.018;13.586;2023-07-20T16:45:58;1.33;;;1.23;;
43154;SDS011;34212;51.018;13.586;2023-07-20T16:51:01;1.77;;;1.42;;
43154;SDS011;34212;51.018;13.586;2023-07-20T16:56:04;1.90;;;1.65;;
43154;SDS011;34212;51.018;13.586;2023-07-20T17:01:06;1.20;;;1.10;;
43154;SDS011;34212;51.018;13.586;2023-07-20T17:06:08;1.25;;;1.15;;
43154;SDS011;34212;51.018;13.586;2023-07-20T17:11:09;1.85;;;1.63;;
43154;SDS011;34212;51.018;13.586;2023-07-20T17:16:11;3.05;;;2.28;;
43154;SDS011;34212;51.018;13.586;2023-07-20T17:26:16;1.60;;;1.30;;
43154;SDS011;34212;51.018;13.586;2023-07-20T17:31:21;1.70;;;1.60;;
43154;SDS011;34212;51.018;13.586;2023-07-20T17:36:27;2.47;;;1.35;;
43154;SDS011;34212;51.018;13.586;2023-07-20T17:41:32;2.15;;;1.80;;
43154;SDS011;34212;51.018;13.586;2023-07-20T17:46:34;2.17;;;1.80;;
43154;SDS011;34212;51.018;13.586;2023-07-20T17:51:39;2.75;;;1.85;;
43154;SDS011;34212;51.018;13.586;2023-07-20T17:56:40;2.85;;;1.88;;
43154;SDS011;34212;51.018;13.586;2023-07-20T18:01:48;2.22;;;2.03;;
43154;SDS011;34212;51.018;13.586;2023-07-20T18:07:35;2.88;;;2.22;;
43154;SDS011;34212;51.018;13.586;2023-07-20T18:12:42;2.22;;;1.80;;
43154;SDS011;34212;51.018;13.586;2023-07-20T18:17:44;3.25;;;1.67;;
43154;SDS011;34212;51.018;13.586;2023-07-20T18:23:04;4.50;;;1.88;;
43154;SDS011;34212;51.018;13.586;2023-07-20T18:28:43;2.90;;;2.22;;
43154;SDS011;34212;51.018;13.586;2023-07-20T18:47:12;4.13;;;1.80;;
43154;SDS011;34212;51.018;13.586;2023-07-20T18:52:30;1.70;;;1.60;;
43154;SDS011;34212;51.018;13.586;2023-07-20T19:04:50;2.25;;;1.60;;
43154;SDS011;34212;51.018;13.586;2023-07-20T19:10:57;2.40;;;2.20;;
43154;SDS011;34212;51.018;13.586;2023-07-20T19:17:13;3.53;;;2.05;;
43154;SDS011;34212;51.018;13.586;2023-07-20T19:28:56;1.95;;;1.60;;
43154;SDS011;34212;51.018;13.586;2023-07-20T19:35:04;2.85;;;1.85;;
43154;SDS011;34212;51.018;13.586;2023-07-20T19:59:46;2.30;;;2.10;;
43154;SDS011;34212;51.018;13.586;2023-07-20T20:06:16;2.30;;;2.10;;
43154;SDS011;34212;51.018;13.586;2023-07-20T20:11:54;6.35;;;2.35;;
43154;SDS011;34212;51.018;13.586;2023-07-20T20:17:29;3.25;;;2.35;;
43154;SDS011;34212;51.018;13.586;2023-07-20T20:23:18;3.08;;;2.15;;
43154;SDS011;34212;51.018;13.586;2023-07-20T20:28:21;3.50;;;2.30;;
43154;SDS011;34212;51.018;13.586;2023-07-20T20:33:24;4.25;;;2.60;;
43154;SDS011;34212;51.018;13.586;2023-07-20T20:38:26;2.50;;;2.30;;
43154;SDS011;34212;51.018;13.586;2023-07-20T20:43:28;3.78;;;2.42;;
43154;SDS011;34212;51.018;13.586;2023-07-20T20:48:31;2.45;;;2.25;;
43154;SDS011;34212;51.018;13.586;2023-07-20T20:53:38;2.92;;;2.60;;
43154;SDS011;34212;51.018;13.586;2023-07-20T20:58:41;2.45;;;2.25;;
43154;SDS011;34212;51.018;13.586;2023-07-20T21:03:43;2.65;;;2.45;;
43154;SDS011;34212;51.018;13.586;2023-07-20T21:08:45;3.55;;;2.55;;
43154;SDS011;34212;51.018;13.586;2023-07-20T21:13:50;2.67;;;2.45;;
43154;SDS011;34212;51.018;13.586;2023-07-20T21:18:52;3.75;;;2.60;;
43154;SDS011;34212;51.018;13.586;2023-07-20T21:23:53;4.35;;;2.58;;
43154;SDS011;34212;51.018;13.586;2023-07-20T21:28:55;4.57;;;2.40;;
43154;SDS011;34212;51.018;13.586;2023-07-20T21:33:56;2.53;;;2.33;;
43154;SDS011;34212;51.018;13.586;2023-07-20T21:38:58;2.93;;;2.63;;
43154;SDS011;34212;51.018;13.586;2023-07-20T21:44:00;3.73;;;2.57;;
43154;SDS011;34212;51.018;13.586;2023-07-20T21:49:01;2.90;;;2.58;;
43154;SDS011;34212;51.018;13.586;2023-07-20T21:54:04;4.35;;;2.50;;
43154;SDS011;34212;51.018;13.586;2023-07-20T21:59:06;3.55;;;2.80;;
43154;SDS011;34212;51.018;13.586;2023-07-20T22:04:08;2.33;;;2.13;;
43154;SDS011;34212;51.018;13.586;2023-07-20T22:09:10;4.38;;;2.70;;
43154;SDS011;34212;51.018;13.586;2023-07-20T22:14:12;3.83;;;2.77;;
43154;SDS011;34212;51.018;13.586;2023-07-20T22:19:16;4.20;;;3.25;;
43154;SDS011;34212;51.018;13.586;2023-07-20T22:24:20;4.28;;;2.65;;
43154;SDS011;34212;51.018;13.586;2023-07-20T22:29:22;3.27;;;2.90;;
43154;SDS011;34212;51.018;13.586;2023-07-20T22:34:28;3.78;;;3.05;;
43154;SDS011;34212;51.018;13.586;2023-07-20T22:39:34;3.70;;;2.60;;
43154;SDS011;34212;51.018;13.586;2023-07-20T22:44:36;3.03;;;2.78;;
43154;SDS011;34212;51.018;13.586;2023-07-20T22:49:37;3.20;;;2.55;;
43154;SDS011;34212;51.018;13.586;2023-07-20T22:54:45;3.97;;;2.60;;
43154;SDS011;34212;51.018;13.586;2023-07-20T22:59:47;2.97;;;2.70;;
43154;SDS011;34212;51.018;13.586;2023-07-20T23:04:49;4.18;;;2.50;;
43154;SDS011;34212;51.018;13.586;2023-07-20T23:09:53;3.38;;;2.60;;
43154;SDS011;34212;51.018;13.586;2023-07-20T23:14:55;2.40;;;2.20;;
43154;SDS011;34212;51.018;13.586;2023-07-20T23:19:57;3.10;;;2.80;;
43154;SDS011;34212;51.018;13.586;2023-07-20T23:24:58;2.77;;;2.10;;
43154;SDS011;34212;51.018;13.586;2023-07-20T23:30:01;2.45;;;2.22;;
43154;SDS011;34212;51.018;13.586;2023-07-20T23:35:02;2.70;;;2.40;;
43154;SDS011;34212;51.018;13.586;2023-07-20T23:40:04;2.20;;;2.00;;
43154;SDS011;34212;51.018;13.586;2023-07-20T23:45:12;2.50;;;2.30;;
43154;SDS011;34212;51.018;13.586;2023-07-20T23:50:17;3.00;;;2.35;;
